sensor_id;sensor_type;location;lat;lon;timestamp;temperature;humidity
11615;DHT22;5863;52.832;4.758;2023-01-25T00:01:03;2.90;99.90
11615;DHT22;5863;52.832;4.758;2023-01-25T00:03:29;2.90;99.90
11615;DHT22;5863;52.832;4.758;2023-01-25T00:06:00;3.00;99.90
11615;DHT22;5863;52.832;4.758;2023-01-25T00:08:26;2.90;99.90
11615;DHT22;5863;52.832;4.758;2023-01-25T00:10:53;2.90;99.90
11615;DHT22;5863;52.832;4.758;2023-01-25T00:13:22;3.00;99.90
11615;DHT22;5863;52.832;4.758;2023-01-25T00:15:48;2.90;99.90
11615;DHT22;5863;52.832;4.758;2023-01-25T00:18:15;2.90;99.90
11615;DHT22;5863;52.832;4.758;2023-01-25T00:20:41;2.90;99.90
11615;DHT22;5863;52.832;4.758;2023-01-25T00:23:09;3.00;99.90
11615;DHT22;5863;52.832;4.758;2023-01-25T00:25:36;2.90;99.90
11615;DHT22;5863;52.832;4.758;2023-01-25T00:28:03;3.00;99.90
11615;DHT22;5863;52.832;4.758;2023-01-25T00:30:31;2.90;99.90
11615;DHT22;5863;52.832;4.758;2023-01-25T00:33:05;3.00;99.90
11615;DHT22;5863;52.832;4.758;2023-01-25T00:35:33;3.00;99.90
11615;DHT22;5863;52.832;4.758;2023-01-25T00:38:01;3.10;99.90
11615;DHT22;5863;52.832;4.758;2023-01-25T00:40:28;3.10;99.90
11615;DHT22;5863;52.832;4.758;2023-01-25T00:42:55;3.10;99.90
11615;DHT22;5863;52.832;4.758;2023-01-25T00:45:21;3.10;99.90
11615;DHT22;5863;52.832;4.758;2023-01-25T00:47:53;3.10;99.90
11615;DHT22;5863;52.832;4.758;2023-01-25T00:50:20;3.10;99.90
11615;DHT22;5863;52.832;4.758;2023-01-25T00:52:46;3.10;99.90
11615;DHT22;5863;52.832;4.758;2023-01-25T00:55:13;3.10;99.90
11615;DHT22;5863;52.832;4.758;2023-01-25T00:57:39;3.00;99.90
11615;DHT22;5863;52.832;4.758;2023-01-25T01:00:07;3.00;99.90
11615;DHT22;5863;52.832;4.758;2023-01-25T01:02:34;3.10;99.90
11615;DHT22;5863;52.832;4.758;2023-01-25T01:05:02;3.00;99.90
11615;DHT22;5863;52.832;4.758;2023-01-25T01:07:29;3.00;99.90
11615;DHT22;5863;52.832;4.758;2023-01-25T01:09:56;3.00;99.90
11615;DHT22;5863;52.832;4.758;2023-01-25T01:12:23;3.00;99.90
11615;DHT22;5863;52.832;4.758;2023-01-25T01:14:50;3.00;99.90
11615;DHT22;5863;52.832;4.758;2023-01-25T01:17:17;2.90;99.90
11615;DHT22;5863;52.832;4.758;2023-01-25T01:19:43;2.90;99.90
11615;DHT22;5863;52.832;4.758;2023-01-25T01:22:11;2.90;99.90
11615;DHT22;5863;52.832;4.758;2023-01-25T01:24:38;2.90;99.90
11615;DHT22;5863;52.832;4.758;2023-01-25T01:27:05;2.90;99.90
11615;DHT22;5863;52.832;4.758;2023-01-25T01:29:32;2.90;99.90
11615;DHT22;5863;52.832;4.758;2023-01-25T01:31:59;2.90;99.90
11615;DHT22;5863;52.832;4.758;2023-01-25T01:34:26;2.80;99.90
11615;DHT22;5863;52.832;4.758;2023-01-25T01:36:53;2.90;99.90
11615;DHT22;5863;52.832;4.758;2023-01-25T01:39:23;2.90;99.90
11615;DHT22;5863;52.832;4.758;2023-01-25T01:41:50;3.00;99.90
11615;DHT22;5863;52.832;4.758;2023-01-25T01:44:19;2.90;99.90
11615;DHT22;5863;52.832;4.758;2023-01-25T01:46:50;2.90;99.90
11615;DHT22;5863;52.832;4.758;2023-01-25T01:49:20;2.90;99.90
11615;DHT22;5863;52.832;4.758;2023-01-25T01:51:50;2.90;99.90
11615;DHT22;5863;52.832;4.758;2023-01-25T01:54:20;2.90;99.90
11615;DHT22;5863;52.832;4.758;2023-01-25T01:56:53;2.80;99.90
11615;DHT22;5863;52.832;4.758;2023-01-25T01:59:22;2.80;99.90
11615;DHT22;5863;52.832;4.758;2023-01-25T02:01:50;2.80;99.90
11615;DHT22;5863;52.832;4.758;2023-01-25T02:04:19;2.90;99.90
11615;DHT22;5863;52.832;4.758;2023-01-25T02:06:52;2.80;99.90
11615;DHT22;5863;52.832;4.758;2023-01-25T02:09:22;2.80;99.90
11615;DHT22;5863;52.832;4.758;2023-01-25T02:11:52;2.90;99.90
11615;DHT22;5863;52.832;4.758;2023-01-25T02:14:20;2.90;99.90
11615;DHT22;5863;52.832;4.758;2023-01-25T02:16:49;2.90;99.90
11615;DHT22;5863;52.832;4.758;2023-01-25T02:19:24;2.80;99.90
11615;DHT22;5863;52.832;4.758;2023-01-25T02:21:55;2.90;99.90
11615;DHT22;5863;52.832;4.758;2023-01-25T02:24:27;2.90;99.90
11615;DHT22;5863;52.832;4.758;2023-01-25T02:26:57;2.90;99.90
11615;DHT22;5863;52.832;4.758;2023-01-25T02:29:25;3.00;99.90
11615;DHT22;5863;52.832;4.758;2023-01-25T02:31:58;3.00;99.90
11615;DHT22;5863;52.832;4.758;2023-01-25T02:34:25;2.90;99.90
11615;DHT22;5863;52.832;4.758;2023-01-25T02:36:52;2.90;99.90
11615;DHT22;5863;52.832;4.758;2023-01-25T02:39:19;2.90;99.90
11615;DHT22;5863;52.832;4.758;2023-01-25T02:41:48;2.80;99.90
11615;DHT22;5863;52.832;4.758;2023-01-25T02:44:18;2.80;99.90
11615;DHT22;5863;52.832;4.758;2023-01-25T02:46:46;2.90;99.90
11615;DHT22;5863;52.832;4.758;2023-01-25T02:49:19;3.00;99.90
11615;DHT22;5863;52.832;4.758;2023-01-25T02:51:48;3.00;99.90
11615;DHT22;5863;52.832;4.758;2023-01-25T02:54:17;3.00;99.90
11615;DHT22;5863;52.832;4.758;2023-01-25T02:56:44;2.90;99.90
11615;DHT22;5863;52.832;4.758;2023-01-25T02:59:11;2.90;99.90
11615;DHT22;5863;52.832;4.758;2023-01-25T03:01:41;2.90;99.90
11615;DHT22;5863;52.832;4.758;2023-01-25T03:04:08;2.80;99.90
11615;DHT22;5863;52.832;4.758;2023-01-25T03:06:35;2.80;99.90
11615;DHT22;5863;52.832;4.758;2023-01-25T03:09:03;2.80;99.90
11615;DHT22;5863;52.832;4.758;2023-01-25T03:11:30;2.80;99.90
11615;DHT22;5863;52.832;4.758;2023-01-25T03:13:57;2.80;99.90
11615;DHT22;5863;52.832;4.758;2023-01-25T03:16:24;2.70;99.90
11615;DHT22;5863;52.832;4.758;2023-01-25T03:18:53;2.70;99.90
11615;DHT22;5863;52.832;4.758;2023-01-25T03:21:21;2.70;99.90
11615;DHT22;5863;52.832;4.758;2023-01-25T03:23:53;2.60;99.90
11615;DHT22;5863;52.832;4.758;2023-01-25T03:26:22;2.70;99.90
11615;DHT22;5863;52.832;4.758;2023-01-25T03:28:49;2.70;99.90
11615;DHT22;5863;52.832;4.758;2023-01-25T03:31:16;2.70;99.90
11615;DHT22;5863;52.832;4.758;2023-01-25T03:33:43;2.70;99.90
11615;DHT22;5863;52.832;4.758;2023-01-25T03:36:12;2.70;99.90
11615;DHT22;5863;52.832;4.758;2023-01-25T03:38:38;2.70;99.90
11615;DHT22;5863;52.832;4.758;2023-01-25T03:41:05;2.70;99.90
11615;DHT22;5863;52.832;4.758;2023-01-25T03:43:32;2.70;99.90
11615;DHT22;5863;52.832;4.758;2023-01-25T03:46:00;2.70;99.90
11615;DHT22;5863;52.832;4.758;2023-01-25T03:48:27;2.70;99.90
11615;DHT22;5863;52.832;4.758;2023-01-25T03:50:56;2.70;99.90
11615;DHT22;5863;52.832;4.758;2023-01-25T03:53:25;2.70;99.90
11615;DHT22;5863;52.832;4.758;2023-01-25T03:55:54;2.70;99.90
11615;DHT22;5863;52.832;4.758;2023-01-25T03:58:21;2.70;99.90
11615;DHT22;5863;52.832;4.758;2023-01-25T04:00:48;2.60;99.90
11615;DHT22;5863;52.832;4.758;2023-01-25T04:03:15;2.70;99.90
11615;DHT22;5863;52.832;4.758;2023-01-25T04:05:44;2.60;99.90
11615;DHT22;5863;52.832;4.758;2023-01-25T04:08:11;2.60;99.90
11615;DHT22;5863;52.832;4.758;2023-01-25T04:10:39;2.60;99.90
11615;DHT22;5863;52.832;4.758;2023-01-25T04:13:06;2.60;99.90
11615;DHT22;5863;52.832;4.758;2023-01-25T04:15:32;2.70;99.90
11615;DHT22;5863;52.832;4.758;2023-01-25T04:18:00;2.70;99.90
11615;DHT22;5863;52.832;4.758;2023-01-25T04:20:27;2.70;99.90
11615;DHT22;5863;52.832;4.758;2023-01-25T04:22:54;2.70;99.90
11615;DHT22;5863;52.832;4.758;2023-01-25T04:25:20;2.70;99.90
11615;DHT22;5863;52.832;4.758;2023-01-25T04:27:49;2.70;99.90
11615;DHT22;5863;52.832;4.758;2023-01-25T04:30:16;2.70;99.90
11615;DHT22;5863;52.832;4.758;2023-01-25T04:32:43;2.70;99.90
11615;DHT22;5863;52.832;4.758;2023-01-25T04:35:10;2.80;99.90
11615;DHT22;5863;52.832;4.758;2023-01-25T04:37:36;2.80;99.90
11615;DHT22;5863;52.832;4.758;2023-01-25T04:40:04;2.80;99.90
11615;DHT22;5863;52.832;4.758;2023-01-25T04:42:31;2.80;99.90
11615;DHT22;5863;52.832;4.758;2023-01-25T04:44:59;2.70;99.90
11615;DHT22;5863;52.832;4.758;2023-01-25T04:47:25;2.70;99.90
11615;DHT22;5863;52.832;4.758;2023-01-25T04:49:52;2.80;99.90
11615;DHT22;5863;52.832;4.758;2023-01-25T04:52:19;2.80;99.90
11615;DHT22;5863;52.832;4.758;2023-01-25T04:54:45;2.70;99.90
11615;DHT22;5863;52.832;4.758;2023-01-25T04:57:12;2.80;99.90
11615;DHT22;5863;52.832;4.758;2023-01-25T04:59:39;2.70;99.90
11615;DHT22;5863;52.832;4.758;2023-01-25T05:02:07;2.70;99.90
11615;DHT22;5863;52.832;4.758;2023-01-25T05:04:33;2.70;99.90
11615;DHT22;5863;52.832;4.758;2023-01-25T05:07:00;2.70;99.90
11615;DHT22;5863;52.832;4.758;2023-01-25T05:09:27;2.70;99.90
11615;DHT22;5863;52.832;4.758;2023-01-25T05:11:55;2.80;99.90
11615;DHT22;5863;52.832;4.758;2023-01-25T05:14:21;2.80;99.90
11615;DHT22;5863;52.832;4.758;2023-01-25T05:16:48;2.80;99.90
11615;DHT22;5863;52.832;4.758;2023-01-25T05:19:16;2.80;99.90
11615;DHT22;5863;52.832;4.758;2023-01-25T05:21:43;2.80;99.90
11615;DHT22;5863;52.832;4.758;2023-01-25T05:24:25;2.80;99.90
11615;DHT22;5863;52.832;4.758;2023-01-25T05:26:52;2.90;99.90
11615;DHT22;5863;52.832;4.758;2023-01-25T05:29:31;2.80;99.90
11615;DHT22;5863;52.832;4.758;2023-01-25T05:32:00;2.80;99.90
11615;DHT22;5863;52.832;4.758;2023-01-25T05:34:29;2.80;99.90
11615;DHT22;5863;52.832;4.758;2023-01-25T05:36:56;2.80;99.90
11615;DHT22;5863;52.832;4.758;2023-01-25T05:39:23;2.80;99.90
11615;DHT22;5863;52.832;4.758;2023-01-25T05:41:49;2.80;99.90
11615;DHT22;5863;52.832;4.758;2023-01-25T05:44:16;2.80;99.90
11615;DHT22;5863;52.832;4.758;2023-01-25T05:46:43;2.80;99.90
11615;DHT22;5863;52.832;4.758;2023-01-25T05:49:10;2.80;99.90
11615;DHT22;5863;52.832;4.758;2023-01-25T05:51:39;2.80;99.90
11615;DHT22;5863;52.832;4.758;2023-01-25T05:54:06;2.80;99.90
11615;DHT22;5863;52.832;4.758;2023-01-25T05:56:33;2.80;99.90
11615;DHT22;5863;52.832;4.758;2023-01-25T05:59:00;2.90;99.90
11615;DHT22;5863;52.832;4.758;2023-01-25T06:01:27;2.90;99.90
11615;DHT22;5863;52.832;4.758;2023-01-25T06:03:54;2.90;99.90
11615;DHT22;5863;52.832;4.758;2023-01-25T06:06:24;2.90;99.90
11615;DHT22;5863;52.832;4.758;2023-01-25T06:08:52;2.90;99.90
11615;DHT22;5863;52.832;4.758;2023-01-25T06:11:21;2.90;99.90
11615;DHT22;5863;52.832;4.758;2023-01-25T06:13:48;2.90;99.90
11615;DHT22;5863;52.832;4.758;2023-01-25T06:16:15;2.90;99.90
11615;DHT22;5863;52.832;4.758;2023-01-25T06:18:42;2.90;99.90
11615;DHT22;5863;52.832;4.758;2023-01-25T06:21:09;3.00;99.90
11615;DHT22;5863;52.832;4.758;2023-01-25T06:23:36;3.00;99.90
11615;DHT22;5863;52.832;4.758;2023-01-25T06:26:06;3.00;99.90
11615;DHT22;5863;52.832;4.758;2023-01-25T06:28:35;3.00;99.90
11615;DHT22;5863;52.832;4.758;2023-01-25T06:31:04;3.00;99.90
11615;DHT22;5863;52.832;4.758;2023-01-25T06:33:31;3.00;99.90
11615;DHT22;5863;52.832;4.758;2023-01-25T06:36:02;3.00;99.90
11615;DHT22;5863;52.832;4.758;2023-01-25T06:38:29;3.00;99.90
11615;DHT22;5863;52.832;4.758;2023-01-25T06:40:58;3.00;99.90
11615;DHT22;5863;52.832;4.758;2023-01-25T06:43:27;3.00;99.90
11615;DHT22;5863;52.832;4.758;2023-01-25T06:45:57;2.90;99.90
11615;DHT22;5863;52.832;4.758;2023-01-25T06:48:24;3.00;99.90
11615;DHT22;5863;52.832;4.758;2023-01-25T06:50:55;2.90;99.90
11615;DHT22;5863;52.832;4.758;2023-01-25T06:53:24;2.90;99.90
11615;DHT22;5863;52.832;4.758;2023-01-25T06:55:56;3.00;99.90
11615;DHT22;5863;52.832;4.758;2023-01-25T06:58:23;2.90;99.90
11615;DHT22;5863;52.832;4.758;2023-01-25T07:00:51;2.90;99.90
11615;DHT22;5863;52.832;4.758;2023-01-25T07:03:18;3.00;99.90
11615;DHT22;5863;52.832;4.758;2023-01-25T07:05:45;3.00;99.90
11615;DHT22;5863;52.832;4.758;2023-01-25T07:08:13;3.00;99.90
11615;DHT22;5863;52.832;4.758;2023-01-25T07:10:40;3.10;99.90
11615;DHT22;5863;52.832;4.758;2023-01-25T07:13:07;3.10;99.90
11615;DHT22;5863;52.832;4.758;2023-01-25T07:15:39;3.10;99.90
11615;DHT22;5863;52.832;4.758;2023-01-25T07:18:07;3.10;99.90
11615;DHT22;5863;52.832;4.758;2023-01-25T07:20:34;3.10;99.90
11615;DHT22;5863;52.832;4.758;2023-01-25T07:23:00;3.10;99.90
11615;DHT22;5863;52.832;4.758;2023-01-25T07:25:30;3.10;99.90
11615;DHT22;5863;52.832;4.758;2023-01-25T07:27:57;3.10;99.90
11615;DHT22;5863;52.832;4.758;2023-01-25T07:30:24;3.10;99.90
11615;DHT22;5863;52.832;4.758;2023-01-25T07:32:51;3.10;99.90
11615;DHT22;5863;52.832;4.758;2023-01-25T07:35:19;3.20;99.90
11615;DHT22;5863;52.832;4.758;2023-01-25T07:37:46;3.30;99.90
11615;DHT22;5863;52.832;4.758;2023-01-25T07:40:13;3.20;99.90
11615;DHT22;5863;52.832;4.758;2023-01-25T07:42:40;3.30;99.90
11615;DHT22;5863;52.832;4.758;2023-01-25T07:45:08;3.30;99.90
11615;DHT22;5863;52.832;4.758;2023-01-25T07:47:34;3.30;99.90
11615;DHT22;5863;52.832;4.758;2023-01-25T07:50:01;3.30;99.90
11615;DHT22;5863;52.832;4.758;2023-01-25T07:52:29;3.20;99.90
11615;DHT22;5863;52.832;4.758;2023-01-25T07:54:58;3.30;99.90
11615;DHT22;5863;52.832;4.758;2023-01-25T07:57:25;3.30;99.90
11615;DHT22;5863;52.832;4.758;2023-01-25T07:59:52;3.30;99.90
11615;DHT22;5863;52.832;4.758;2023-01-25T08:02:20;3.30;99.90
11615;DHT22;5863;52.832;4.758;2023-01-25T08:04:47;3.30;99.90
11615;DHT22;5863;52.832;4.758;2023-01-25T08:07:15;3.30;99.90
11615;DHT22;5863;52.832;4.758;2023-01-25T08:09:44;3.30;99.90
11615;DHT22;5863;52.832;4.758;2023-01-25T08:12:10;3.40;99.90
11615;DHT22;5863;52.832;4.758;2023-01-25T08:14:37;3.40;99.90
11615;DHT22;5863;52.832;4.758;2023-01-25T08:17:03;3.40;99.90
11615;DHT22;5863;52.832;4.758;2023-01-25T08:19:30;3.40;99.90
11615;DHT22;5863;52.832;4.758;2023-01-25T08:21:57;3.40;99.90
11615;DHT22;5863;52.832;4.758;2023-01-25T08:24:23;3.40;99.90
11615;DHT22;5863;52.832;4.758;2023-01-25T08:26:52;3.40;99.90
11615;DHT22;5863;52.832;4.758;2023-01-25T08:29:19;3.40;99.90
11615;DHT22;5863;52.832;4.758;2023-01-25T08:31:46;3.50;99.90
11615;DHT22;5863;52.832;4.758;2023-01-25T08:34:13;3.50;99.90
11615;DHT22;5863;52.832;4.758;2023-01-25T08:36:40;3.50;99.90
11615;DHT22;5863;52.832;4.758;2023-01-25T08:39:08;3.50;99.90
11615;DHT22;5863;52.832;4.758;2023-01-25T08:41:36;3.40;99.90
11615;DHT22;5863;52.832;4.758;2023-01-25T08:44:04;3.50;99.90
11615;DHT22;5863;52.832;4.758;2023-01-25T08:46:32;3.50;99.90
11615;DHT22;5863;52.832;4.758;2023-01-25T08:49:00;3.50;99.90
11615;DHT22;5863;52.832;4.758;2023-01-25T08:51:28;3.50;99.90
11615;DHT22;5863;52.832;4.758;2023-01-25T08:53:56;3.50;99.90
11615;DHT22;5863;52.832;4.758;2023-01-25T08:56:22;3.50;99.90
11615;DHT22;5863;52.832;4.758;2023-01-25T08:58:49;3.50;99.90
11615;DHT22;5863;52.832;4.758;2023-01-25T09:01:18;3.50;99.90
11615;DHT22;5863;52.832;4.758;2023-01-25T09:03:47;3.40;99.90
11615;DHT22;5863;52.832;4.758;2023-01-25T09:06:14;3.40;99.90
11615;DHT22;5863;52.832;4.758;2023-01-25T09:08:41;3.50;99.90
11615;DHT22;5863;52.832;4.758;2023-01-25T09:11:10;3.40;99.90
11615;DHT22;5863;52.832;4.758;2023-01-25T09:13:37;3.40;99.90
11615;DHT22;5863;52.832;4.758;2023-01-25T09:16:09;3.40;99.90
11615;DHT22;5863;52.832;4.758;2023-01-25T09:18:38;3.50;99.90
11615;DHT22;5863;52.832;4.758;2023-01-25T09:21:08;3.50;99.90
11615;DHT22;5863;52.832;4.758;2023-01-25T09:23:36;3.50;99.90
11615;DHT22;5863;52.832;4.758;2023-01-25T09:26:03;3.50;99.90
11615;DHT22;5863;52.832;4.758;2023-01-25T09:28:32;3.50;99.90
11615;DHT22;5863;52.832;4.758;2023-01-25T09:31:00;3.50;99.90
11615;DHT22;5863;52.832;4.758;2023-01-25T09:33:28;3.50;99.90
11615;DHT22;5863;52.832;4.758;2023-01-25T09:35:57;3.50;99.90
11615;DHT22;5863;52.832;4.758;2023-01-25T09:38:24;3.50;99.90
11615;DHT22;5863;52.832;4.758;2023-01-25T09:41:02;3.40;99.90
11615;DHT22;5863;52.832;4.758;2023-01-25T09:43:52;3.40;99.90
11615;DHT22;5863;52.832;4.758;2023-01-25T09:46:30;3.40;99.90
11615;DHT22;5863;52.832;4.758;2023-01-25T09:49:05;3.50;99.90
11615;DHT22;5863;52.832;4.758;2023-01-25T09:51:49;3.50;99.90
11615;DHT22;5863;52.832;4.758;2023-01-25T09:54:19;3.50;99.90
11615;DHT22;5863;52.832;4.758;2023-01-25T09:56:48;3.50;99.90
11615;DHT22;5863;52.832;4.758;2023-01-25T09:59:20;3.50;99.90
11615;DHT22;5863;52.832;4.758;2023-01-25T10:01:52;3.50;99.90
11615;DHT22;5863;52.832;4.758;2023-01-25T10:04:22;3.50;99.90
11615;DHT22;5863;52.832;4.758;2023-01-25T10:06:54;3.50;99.90
11615;DHT22;5863;52.832;4.758;2023-01-25T10:09:32;3.50;99.90
11615;DHT22;5863;52.832;4.758;2023-01-25T10:12:14;3.50;99.90
11615;DHT22;5863;52.832;4.758;2023-01-25T10:14:41;3.50;99.90
11615;DHT22;5863;52.832;4.758;2023-01-25T10:17:12;3.50;99.90
11615;DHT22;5863;52.832;4.758;2023-01-25T10:19:48;3.50;99.90
11615;DHT22;5863;52.832;4.758;2023-01-25T10:22:23;3.50;99.90
11615;DHT22;5863;52.832;4.758;2023-01-25T10:25:04;3.50;99.90
11615;DHT22;5863;52.832;4.758;2023-01-25T10:27:41;3.50;99.90
11615;DHT22;5863;52.832;4.758;2023-01-25T10:30:22;3.50;99.90
11615;DHT22;5863;52.832;4.758;2023-01-25T10:32:51;3.50;99.90
11615;DHT22;5863;52.832;4.758;2023-01-25T10:35:22;3.60;99.90
11615;DHT22;5863;52.832;4.758;2023-01-25T10:37:52;3.60;99.90
11615;DHT22;5863;52.832;4.758;2023-01-25T10:40:22;3.60;99.90
11615;DHT22;5863;52.832;4.758;2023-01-25T10:42:54;3.60;99.90
11615;DHT22;5863;52.832;4.758;2023-01-25T10:45:21;3.70;99.90
11615;DHT22;5863;52.832;4.758;2023-01-25T10:47:50;3.60;99.90
11615;DHT22;5863;52.832;4.758;2023-01-25T10:50:43;3.60;99.90
11615;DHT22;5863;52.832;4.758;2023-01-25T10:53:25;3.60;99.90
11615;DHT22;5863;52.832;4.758;2023-01-25T10:56:03;3.70;99.90
11615;DHT22;5863;52.832;4.758;2023-01-25T10:58:34;3.70;99.90
11615;DHT22;5863;52.832;4.758;2023-01-25T11:01:03;3.80;99.90
11615;DHT22;5863;52.832;4.758;2023-01-25T11:03:36;3.80;99.90
11615;DHT22;5863;52.832;4.758;2023-01-25T11:06:04;3.80;99.90
11615;DHT22;5863;52.832;4.758;2023-01-25T11:08:35;3.80;99.90
11615;DHT22;5863;52.832;4.758;2023-01-25T11:11:24;3.70;99.90
11615;DHT22;5863;52.832;4.758;2023-01-25T11:13:52;3.70;99.90
11615;DHT22;5863;52.832;4.758;2023-01-25T11:16:31;3.80;99.90
11615;DHT22;5863;52.832;4.758;2023-01-25T11:18:59;3.80;99.90
11615;DHT22;5863;52.832;4.758;2023-01-25T11:21:28;3.70;99.90
11615;DHT22;5863;52.832;4.758;2023-01-25T11:24:15;3.80;99.90
11615;DHT22;5863;52.832;4.758;2023-01-25T11:26:42;3.90;99.90
11615;DHT22;5863;52.832;4.758;2023-01-25T11:29:14;3.90;99.90
11615;DHT22;5863;52.832;4.758;2023-01-25T11:31:44;3.90;99.90
11615;DHT22;5863;52.832;4.758;2023-01-25T11:34:13;3.90;99.90
11615;DHT22;5863;52.832;4.758;2023-01-25T11:36:52;4.00;99.90
11615;DHT22;5863;52.832;4.758;2023-01-25T11:39:37;3.90;99.90
11615;DHT22;5863;52.832;4.758;2023-01-25T11:42:20;3.90;99.90
11615;DHT22;5863;52.832;4.758;2023-01-25T11:45:17;3.90;99.90
11615;DHT22;5863;52.832;4.758;2023-01-25T11:47:56;3.90;99.90
11615;DHT22;5863;52.832;4.758;2023-01-25T11:50:31;4.00;99.90
11615;DHT22;5863;52.832;4.758;2023-01-25T11:53:14;3.90;99.90
11615;DHT22;5863;52.832;4.758;2023-01-25T11:55:50;3.90;99.90
11615;DHT22;5863;52.832;4.758;2023-01-25T11:58:33;4.00;99.90
11615;DHT22;5863;52.832;4.758;2023-01-25T12:01:08;3.90;99.90
11615;DHT22;5863;52.832;4.758;2023-01-25T12:06:57;4.00;99.90
11615;DHT22;5863;52.832;4.758;2023-01-25T12:09:34;4.00;99.90
11615;DHT22;5863;52.832;4.758;2023-01-25T12:12:11;4.00;99.90
11615;DHT22;5863;52.832;4.758;2023-01-25T12:14:51;4.00;99.90
11615;DHT22;5863;52.832;4.758;2023-01-25T12:17:27;4.00;99.90
11615;DHT22;5863;52.832;4.758;2023-01-25T12:20:12;4.00;99.90
11615;DHT22;5863;52.832;4.758;2023-01-25T12:22:53;4.00;99.90
11615;DHT22;5863;52.832;4.758;2023-01-25T12:25:30;4.00;99.90
11615;DHT22;5863;52.832;4.758;2023-01-25T12:28:08;3.90;99.90
11615;DHT22;5863;52.832;4.758;2023-01-25T12:30:43;3.90;99.90
11615;DHT22;5863;52.832;4.758;2023-01-25T12:33:13;3.90;99.90
11615;DHT22;5863;52.832;4.758;2023-01-25T12:35:45;3.90;99.90
11615;DHT22;5863;52.832;4.758;2023-01-25T12:38:16;4.00;99.90
11615;DHT22;5863;52.832;4.758;2023-01-25T12:40:49;4.00;99.90
11615;DHT22;5863;52.832;4.758;2023-01-25T12:43:25;4.00;99.90
11615;DHT22;5863;52.832;4.758;2023-01-25T12:45:53;4.00;99.90
11615;DHT22;5863;52.832;4.758;2023-01-25T12:48:22;4.00;99.90
11615;DHT22;5863;52.832;4.758;2023-01-25T12:50:53;4.10;99.90
11615;DHT22;5863;52.832;4.758;2023-01-25T12:53:24;4.10;99.90
11615;DHT22;5863;52.832;4.758;2023-01-25T12:55:52;4.10;99.90
11615;DHT22;5863;52.832;4.758;2023-01-25T12:58:26;4.20;99.90
11615;DHT22;5863;52.832;4.758;2023-01-25T13:00:59;4.20;99.90
11615;DHT22;5863;52.832;4.758;2023-01-25T13:03:32;4.20;99.90
11615;DHT22;5863;52.832;4.758;2023-01-25T13:06:08;4.30;99.90
11615;DHT22;5863;52.832;4.758;2023-01-25T13:08:47;4.40;99.90
11615;DHT22;5863;52.832;4.758;2023-01-25T13:11:18;4.40;99.90
11615;DHT22;5863;52.832;4.758;2023-01-25T13:13:49;4.30;99.90
11615;DHT22;5863;52.832;4.758;2023-01-25T13:16:30;4.30;99.90
11615;DHT22;5863;52.832;4.758;2023-01-25T13:18:59;4.30;99.90
11615;DHT22;5863;52.832;4.758;2023-01-25T13:21:40;4.30;99.90
11615;DHT22;5863;52.832;4.758;2023-01-25T13:24:20;4.30;99.90
11615;DHT22;5863;52.832;4.758;2023-01-25T13:27:22;4.40;99.90
11615;DHT22;5863;52.832;4.758;2023-01-25T13:30:01;4.30;99.90
11615;DHT22;5863;52.832;4.758;2023-01-25T13:32:59;4.30;99.90
11615;DHT22;5863;52.832;4.758;2023-01-25T13:35:30;4.40;99.90
11615;DHT22;5863;52.832;4.758;2023-01-25T13:38:00;4.40;99.90
11615;DHT22;5863;52.832;4.758;2023-01-25T13:40:30;4.40;99.90
11615;DHT22;5863;52.832;4.758;2023-01-25T13:42:59;4.40;99.90
11615;DHT22;5863;52.832;4.758;2023-01-25T13:45:32;4.50;99.90
11615;DHT22;5863;52.832;4.758;2023-01-25T13:48:04;4.50;99.90
11615;DHT22;5863;52.832;4.758;2023-01-25T13:50:38;4.50;99.90
11615;DHT22;5863;52.832;4.758;2023-01-25T13:53:18;4.50;99.90
11615;DHT22;5863;52.832;4.758;2023-01-25T13:55:46;4.50;99.90
11615;DHT22;5863;52.832;4.758;2023-01-25T13:58:17;4.50;99.90
11615;DHT22;5863;52.832;4.758;2023-01-25T14:00:51;4.60;99.90
11615;DHT22;5863;52.832;4.758;2023-01-25T14:03:22;4.60;99.90
11615;DHT22;5863;52.832;4.758;2023-01-25T14:05:52;4.60;99.90
11615;DHT22;5863;52.832;4.758;2023-01-25T14:08:20;4.60;99.90
11615;DHT22;5863;52.832;4.758;2023-01-25T14:10:47;4.70;99.90
11615;DHT22;5863;52.832;4.758;2023-01-25T14:13:15;4.70;99.90
11615;DHT22;5863;52.832;4.758;2023-01-25T14:15:53;4.70;99.90
11615;DHT22;5863;52.832;4.758;2023-01-25T14:18:21;4.70;99.90
11615;DHT22;5863;52.832;4.758;2023-01-25T14:20:49;4.80;99.90
11615;DHT22;5863;52.832;4.758;2023-01-25T14:23:25;4.80;99.90
11615;DHT22;5863;52.832;4.758;2023-01-25T14:25:53;4.70;99.90
11615;DHT22;5863;52.832;4.758;2023-01-25T14:28:23;4.60;99.90
11615;DHT22;5863;52.832;4.758;2023-01-25T14:30:52;4.60;99.90
11615;DHT22;5863;52.832;4.758;2023-01-25T14:33:23;4.60;99.90
11615;DHT22;5863;52.832;4.758;2023-01-25T14:35:52;4.50;99.90
11615;DHT22;5863;52.832;4.758;2023-01-25T14:38:26;4.50;99.90
11615;DHT22;5863;52.832;4.758;2023-01-25T14:40:55;4.50;99.90
11615;DHT22;5863;52.832;4.758;2023-01-25T14:43:23;4.50;99.90
11615;DHT22;5863;52.832;4.758;2023-01-25T14:45:52;4.70;99.90
11615;DHT22;5863;52.832;4.758;2023-01-25T14:48:36;4.70;99.90
11615;DHT22;5863;52.832;4.758;2023-01-25T14:51:13;4.80;99.90
11615;DHT22;5863;52.832;4.758;2023-01-25T14:53:43;4.80;99.90
11615;DHT22;5863;52.832;4.758;2023-01-25T14:56:27;4.90;99.90
11615;DHT22;5863;52.832;4.758;2023-01-25T14:58:55;4.90;99.90
11615;DHT22;5863;52.832;4.758;2023-01-25T15:01:30;4.90;99.90
11615;DHT22;5863;52.832;4.758;2023-01-25T15:03:57;5.00;99.90
11615;DHT22;5863;52.832;4.758;2023-01-25T15:06:24;5.00;99.90
11615;DHT22;5863;52.832;4.758;2023-01-25T15:08:51;5.00;99.90
11615;DHT22;5863;52.832;4.758;2023-01-25T15:11:28;5.00;99.90
11615;DHT22;5863;52.832;4.758;2023-01-25T15:14:17;5.10;99.90
11615;DHT22;5863;52.832;4.758;2023-01-25T15:16:46;5.10;99.90
11615;DHT22;5863;52.832;4.758;2023-01-25T15:19:27;5.10;99.90
11615;DHT22;5863;52.832;4.758;2023-01-25T15:21:55;5.10;99.90
11615;DHT22;5863;52.832;4.758;2023-01-25T15:24:23;5.10;99.90
11615;DHT22;5863;52.832;4.758;2023-01-25T15:26:52;5.20;99.90
11615;DHT22;5863;52.832;4.758;2023-01-25T15:29:21;5.10;99.90
11615;DHT22;5863;52.832;4.758;2023-01-25T15:31:53;5.10;99.90
11615;DHT22;5863;52.832;4.758;2023-01-25T15:34:24;5.10;99.90
11615;DHT22;5863;52.832;4.758;2023-01-25T15:36:53;5.20;99.90
11615;DHT22;5863;52.832;4.758;2023-01-25T15:39:20;5.20;99.90
11615;DHT22;5863;52.832;4.758;2023-01-25T15:41:48;5.30;99.90
11615;DHT22;5863;52.832;4.758;2023-01-25T15:44:15;5.30;99.90
11615;DHT22;5863;52.832;4.758;2023-01-25T15:46:48;5.30;99.90
11615;DHT22;5863;52.832;4.758;2023-01-25T15:49:20;5.30;99.90
11615;DHT22;5863;52.832;4.758;2023-01-25T15:51:48;5.30;99.90
11615;DHT22;5863;52.832;4.758;2023-01-25T15:54:15;5.30;99.90
11615;DHT22;5863;52.832;4.758;2023-01-25T15:56:44;5.30;99.90
11615;DHT22;5863;52.832;4.758;2023-01-25T15:59:15;5.30;99.90
11615;DHT22;5863;52.832;4.758;2023-01-25T16:01:42;5.30;99.90
11615;DHT22;5863;52.832;4.758;2023-01-25T16:04:10;5.30;99.90
11615;DHT22;5863;52.832;4.758;2023-01-25T16:06:41;5.40;99.90
11615;DHT22;5863;52.832;4.758;2023-01-25T16:09:16;5.30;99.90
11615;DHT22;5863;52.832;4.758;2023-01-25T16:11:44;5.40;99.90
11615;DHT22;5863;52.832;4.758;2023-01-25T16:14:11;5.40;99.90
11615;DHT22;5863;52.832;4.758;2023-01-25T16:16:39;5.40;99.90
11615;DHT22;5863;52.832;4.758;2023-01-25T16:19:09;5.40;99.90
11615;DHT22;5863;52.832;4.758;2023-01-25T16:21:40;5.40;99.90
11615;DHT22;5863;52.832;4.758;2023-01-25T16:24:07;5.40;99.90